sensor_id;sensor_type;location;lat;lon;timestamp;temperature;humidity
25108;DHT22;13090;53.422;7.670;2022-07-10T00:02:44;17.40;64.70
25108;DHT22;13090;53.422;7.670;2022-07-10T00:07:49;17.40;65.00
25108;DHT22;13090;53.422;7.670;2022-07-10T00:12:52;17.30;65.20
25108;DHT22;13090;53.422;7.670;2022-07-10T00:17:55;17.30;64.90
25108;DHT22;13090;53.422;7.670;2022-07-10T00:22:59;17.20;65.10
25108;DHT22;13090;53.422;7.670;2022-07-10T00:28:03;17.10;65.50
25108;DHT22;13090;53.422;7.670;2022-07-10T00:33:05;17.10;65.60
25108;DHT22;13090;53.422;7.670;2022-07-10T00:38:09;17.10;66.00
25108;DHT22;13090;53.422;7.670;2022-07-10T00:43:12;17.00;66.20
25108;DHT22;13090;53.422;7.670;2022-07-10T00:48:14;17.00;66.00
25108;DHT22;13090;53.422;7.670;2022-07-10T00:53:18;17.00;66.20
25108;DHT22;13090;53.422;7.670;2022-07-10T00:58:21;17.00;66.50
25108;DHT22;13090;53.422;7.670;2022-07-10T01:03:23;17.00;66.30
25108;DHT22;13090;53.422;7.670;2022-07-10T01:08:27;17.00;66.20
25108;DHT22;13090;53.422;7.670;2022-07-10T01:13:30;17.00;66.30
25108;DHT22;13090;53.422;7.670;2022-07-10T01:18:32;17.00;66.30
25108;DHT22;13090;53.422;7.670;2022-07-10T01:23:36;17.00;66.20
25108;DHT22;13090;53.422;7.670;2022-07-10T01:28:39;17.00;66.30
25108;DHT22;13090;53.422;7.670;2022-07-10T01:33:42;16.90;65.80
25108;DHT22;13090;53.422;7.670;2022-07-10T01:38:46;16.90;65.80
25108;DHT22;13090;53.422;7.670;2022-07-10T01:43:48;16.80;66.00
25108;DHT22;13090;53.422;7.670;2022-07-10T01:48:51;16.70;65.90
25108;DHT22;13090;53.422;7.670;2022-07-10T01:53:55;16.70;66.00
25108;DHT22;13090;53.422;7.670;2022-07-10T01:58:57;16.70;66.20
25108;DHT22;13090;53.422;7.670;2022-07-10T02:03:59;16.70;66.20
25108;DHT22;13090;53.422;7.670;2022-07-10T02:09:03;16.80;66.40
25108;DHT22;13090;53.422;7.670;2022-07-10T02:14:06;16.80;66.50
25108;DHT22;13090;53.422;7.670;2022-07-10T02:19:08;16.90;66.30
25108;DHT22;13090;53.422;7.670;2022-07-10T02:24:12;16.90;66.20
25108;DHT22;13090;53.422;7.670;2022-07-10T02:29:14;16.90;66.40
25108;DHT22;13090;53.422;7.670;2022-07-10T02:34:17;16.90;66.40
25108;DHT22;13090;53.422;7.670;2022-07-10T02:39:20;16.70;66.40
25108;DHT22;13090;53.422;7.670;2022-07-10T02:44:23;16.70;66.70
25108;DHT22;13090;53.422;7.670;2022-07-10T02:49:25;16.60;66.80
25108;DHT22;13090;53.422;7.670;2022-07-10T02:54:29;16.50;67.00
25108;DHT22;13090;53.422;7.670;2022-07-10T02:59:31;16.40;67.30
25108;DHT22;13090;53.422;7.670;2022-07-10T03:04:34;16.40;67.40
25108;DHT22;13090;53.422;7.670;2022-07-10T03:09:38;16.30;67.50
25108;DHT22;13090;53.422;7.670;2022-07-10T03:14:40;16.30;67.80
25108;DHT22;13090;53.422;7.670;2022-07-10T03:19:42;16.30;68.00
25108;DHT22;13090;53.422;7.670;2022-07-10T03:24:46;16.30;68.10
25108;DHT22;13090;53.422;7.670;2022-07-10T03:29:49;16.30;68.30
25108;DHT22;13090;53.422;7.670;2022-07-10T03:34:51;16.30;68.10
25108;DHT22;13090;53.422;7.670;2022-07-10T03:39:55;16.30;68.20
25108;DHT22;13090;53.422;7.670;2022-07-10T03:44:57;16.40;68.40
25108;DHT22;13090;53.422;7.670;2022-07-10T03:49:59;16.40;68.40
25108;DHT22;13090;53.422;7.670;2022-07-10T03:55:04;16.50;68.50
25108;DHT22;13090;53.422;7.670;2022-07-10T04:00:08;16.50;68.70
25108;DHT22;13090;53.422;7.670;2022-07-10T04:05:11;16.60;68.50
25108;DHT22;13090;53.422;7.670;2022-07-10T04:10:15;16.60;68.40
25108;DHT22;13090;53.422;7.670;2022-07-10T04:15:17;16.70;68.60
25108;DHT22;13090;53.422;7.670;2022-07-10T04:20:20;16.80;68.70
25108;DHT22;13090;53.422;7.670;2022-07-10T04:25:24;16.90;68.70
25108;DHT22;13090;53.422;7.670;2022-07-10T04:30:26;17.00;68.80
25108;DHT22;13090;53.422;7.670;2022-07-10T04:35:28;17.10;68.70
25108;DHT22;13090;53.422;7.670;2022-07-10T04:40:32;17.20;68.60
25108;DHT22;13090;53.422;7.670;2022-07-10T04:45:35;17.20;68.60
25108;DHT22;13090;53.422;7.670;2022-07-10T04:50:37;17.30;69.30
25108;DHT22;13090;53.422;7.670;2022-07-10T04:55:41;17.30;68.20
25108;DHT22;13090;53.422;7.670;2022-07-10T05:00:43;17.30;68.20
25108;DHT22;13090;53.422;7.670;2022-07-10T05:05:46;17.40;68.10
25108;DHT22;13090;53.422;7.670;2022-07-10T05:10:50;17.40;68.10
25108;DHT22;13090;53.422;7.670;2022-07-10T05:15:52;17.50;68.00
25108;DHT22;13090;53.422;7.670;2022-07-10T05:20:55;17.60;67.80
25108;DHT22;13090;53.422;7.670;2022-07-10T05:25:58;17.60;67.50
25108;DHT22;13090;53.422;7.670;2022-07-10T05:31:01;17.70;68.00
25108;DHT22;13090;53.422;7.670;2022-07-10T05:36:04;17.90;67.80
25108;DHT22;13090;53.422;7.670;2022-07-10T05:41:08;18.00;67.20
25108;DHT22;13090;53.422;7.670;2022-07-10T05:46:11;18.10;66.70
25108;DHT22;13090;53.422;7.670;2022-07-10T05:51:13;18.10;66.70
25108;DHT22;13090;53.422;7.670;2022-07-10T05:56:35;18.50;68.60
25108;DHT22;13090;53.422;7.670;2022-07-10T06:01:37;19.50;69.40
25108;DHT22;13090;53.422;7.670;2022-07-10T06:06:39;20.40;66.60
25108;DHT22;13090;53.422;7.670;2022-07-10T06:11:43;20.90;63.80
25108;DHT22;13090;53.422;7.670;2022-07-10T06:16:46;21.00;62.00
25108;DHT22;13090;53.422;7.670;2022-07-10T06:21:48;20.90;62.10
25108;DHT22;13090;53.422;7.670;2022-07-10T06:26:52;21.10;62.80
25108;DHT22;13090;53.422;7.670;2022-07-10T06:31:55;21.30;62.00
25108;DHT22;13090;53.422;7.670;2022-07-10T06:36:57;21.50;61.20
25108;DHT22;13090;53.422;7.670;2022-07-10T06:42:01;21.40;60.60
25108;DHT22;13090;53.422;7.670;2022-07-10T06:47:07;21.30;60.00
25108;DHT22;13090;53.422;7.670;2022-07-10T06:52:09;21.00;60.00
25108;DHT22;13090;53.422;7.670;2022-07-10T06:57:14;20.70;60.60
25108;DHT22;13090;53.422;7.670;2022-07-10T07:02:17;20.40;61.30
25108;DHT22;13090;53.422;7.670;2022-07-10T07:07:21;20.20;61.80
25108;DHT22;13090;53.422;7.670;2022-07-10T07:12:28;20.00;62.30
25108;DHT22;13090;53.422;7.670;2022-07-10T07:17:31;19.90;62.80
25108;DHT22;13090;53.422;7.670;2022-07-10T07:22:33;19.90;63.30
25108;DHT22;13090;53.422;7.670;2022-07-10T07:27:38;20.10;63.90
25108;DHT22;13090;53.422;7.670;2022-07-10T07:32:41;20.30;63.20
25108;DHT22;13090;53.422;7.670;2022-07-10T07:37:45;20.40;62.60
25108;DHT22;13090;53.422;7.670;2022-07-10T07:42:49;20.50;62.30
25108;DHT22;13090;53.422;7.670;2022-07-10T07:47:53;20.50;62.50
25108;DHT22;13090;53.422;7.670;2022-07-10T07:52:56;20.50;62.90
25108;DHT22;13090;53.422;7.670;2022-07-10T07:58:00;20.60;63.20
25108;DHT22;13090;53.422;7.670;2022-07-10T08:03:03;20.80;62.80
25108;DHT22;13090;53.422;7.670;2022-07-10T08:08:05;20.80;61.70
25108;DHT22;13090;53.422;7.670;2022-07-10T08:13:09;20.60;62.70
25108;DHT22;13090;53.422;7.670;2022-07-10T08:18:12;20.50;63.00
25108;DHT22;13090;53.422;7.670;2022-07-10T08:23:14;20.40;62.80
25108;DHT22;13090;53.422;7.670;2022-07-10T08:28:18;20.50;63.30
25108;DHT22;13090;53.422;7.670;2022-07-10T08:33:25;20.70;63.10
25108;DHT22;13090;53.422;7.670;2022-07-10T08:38:28;21.00;63.10
25108;DHT22;13090;53.422;7.670;2022-07-10T08:43:35;21.40;62.40
25108;DHT22;13090;53.422;7.670;2022-07-10T08:48:41;21.70;61.10
25108;DHT22;13090;53.422;7.670;2022-07-10T08:53:44;21.90;60.70
25108;DHT22;13090;53.422;7.670;2022-07-10T08:58:50;22.00;60.20
25108;DHT22;13090;53.422;7.670;2022-07-10T09:03:54;22.10;59.20
25108;DHT22;13090;53.422;7.670;2022-07-10T09:08:59;22.10;59.70
25108;DHT22;13090;53.422;7.670;2022-07-10T09:14:05;22.00;59.30
25108;DHT22;13090;53.422;7.670;2022-07-10T09:19:18;21.90;58.90
25108;DHT22;13090;53.422;7.670;2022-07-10T09:24:22;21.70;58.80
25108;DHT22;13090;53.422;7.670;2022-07-10T09:29:27;21.40;58.80
25108;DHT22;13090;53.422;7.670;2022-07-10T09:34:40;21.20;59.20
25108;DHT22;13090;53.422;7.670;2022-07-10T09:39:52;21.10;60.40
25108;DHT22;13090;53.422;7.670;2022-07-10T09:45:13;21.00;59.90
25108;DHT22;13090;53.422;7.670;2022-07-10T09:50:24;21.10;60.20
25108;DHT22;13090;53.422;7.670;2022-07-10T09:55:29;21.20;61.00
25108;DHT22;13090;53.422;7.670;2022-07-10T10:00:36;21.30;61.00
25108;DHT22;13090;53.422;7.670;2022-07-10T10:05:43;21.50;60.80
25108;DHT22;13090;53.422;7.670;2022-07-10T10:10:48;21.60;60.80
25108;DHT22;13090;53.422;7.670;2022-07-10T10:15:52;21.90;61.40
25108;DHT22;13090;53.422;7.670;2022-07-10T10:20:55;22.40;61.30
25108;DHT22;13090;53.422;7.670;2022-07-10T10:25:59;22.80;60.30
25108;DHT22;13090;53.422;7.670;2022-07-10T10:31:05;22.90;59.30
25108;DHT22;13090;53.422;7.670;2022-07-10T10:36:42;22.90;58.80
25108;DHT22;13090;53.422;7.670;2022-07-10T10:41:39;22.60;58.90
25108;DHT22;13090;53.422;7.670;2022-07-10T10:46:57;22.20;59.60
25108;DHT22;13090;53.422;7.670;2022-07-10T10:52:10;22.00;60.70
25108;DHT22;13090;53.422;7.670;2022-07-10T10:57:18;22.10;61.80
25108;DHT22;13090;53.422;7.670;2022-07-10T11:02:25;22.40;61.60
25108;DHT22;13090;53.422;7.670;2022-07-10T11:07:51;22.60;61.10
25108;DHT22;13090;53.422;7.670;2022-07-10T11:12:58;22.70;60.70
25108;DHT22;13090;53.422;7.670;2022-07-10T11:18:08;22.70;61.00
25108;DHT22;13090;53.422;7.670;2022-07-10T11:23:45;22.70;61.20
25108;DHT22;13090;53.422;7.670;2022-07-10T11:28:58;22.60;60.60
25108;DHT22;13090;53.422;7.670;2022-07-10T11:34:04;22.50;60.50
25108;DHT22;13090;53.422;7.670;2022-07-10T11:39:08;22.30;60.00
25108;DHT22;13090;53.422;7.670;2022-07-10T11:44:14;22.20;60.00
25108;DHT22;13090;53.422;7.670;2022-07-10T11:49:19;22.30;60.20
25108;DHT22;13090;53.422;7.670;2022-07-10T11:54:23;22.50;59.90
25108;DHT22;13090;53.422;7.670;2022-07-10T11:59:26;22.70;59.40
25108;DHT22;13090;53.422;7.670;2022-07-10T12:04:31;22.80;59.30
25108;DHT22;13090;53.422;7.670;2022-07-10T12:09:34;23.00;58.90
25108;DHT22;13090;53.422;7.670;2022-07-10T12:14:36;23.10;58.90
25108;DHT22;13090;53.422;7.670;2022-07-10T12:19:40;23.30;58.50
25108;DHT22;13090;53.422;7.670;2022-07-10T12:24:44;23.30;58.00
25108;DHT22;13090;53.422;7.670;2022-07-10T12:30:00;23.40;58.10
25108;DHT22;13090;53.422;7.670;2022-07-10T12:35:05;23.70;57.60
25108;DHT22;13090;53.422;7.670;2022-07-10T12:40:09;24.00;57.50
25108;DHT22;13090;53.422;7.670;2022-07-10T12:45:13;24.10;57.00
25108;DHT22;13090;53.422;7.670;2022-07-10T12:50:17;24.20;56.50
25108;DHT22;13090;53.422;7.670;2022-07-10T12:55:20;24.20;56.30
25108;DHT22;13090;53.422;7.670;2022-07-10T13:00:26;24.30;56.20
25108;DHT22;13090;53.422;7.670;2022-07-10T13:05:32;24.40;56.10
25108;DHT22;13090;53.422;7.670;2022-07-10T13:10:35;24.60;55.60
25108;DHT22;13090;53.422;7.670;2022-07-10T13:15:38;24.70;55.70
25108;DHT22;13090;53.422;7.670;2022-07-10T13:20:42;24.70;55.40
25108;DHT22;13090;53.422;7.670;2022-07-10T13:25:45;24.70;55.30
25108;DHT22;13090;53.422;7.670;2022-07-10T13:30:48;24.70;55.10
25108;DHT22;13090;53.422;7.670;2022-07-10T13:35:52;24.70;55.00
25108;DHT22;13090;53.422;7.670;2022-07-10T13:40:55;24.60;54.90
25108;DHT22;13090;53.422;7.670;2022-07-10T13:45:57;24.40;55.00
25108;DHT22;13090;53.422;7.670;2022-07-10T13:51:01;24.40;55.40
25108;DHT22;13090;53.422;7.670;2022-07-10T13:56:05;24.30;55.30
25108;DHT22;13090;53.422;7.670;2022-07-10T14:01:12;24.30;55.20
25108;DHT22;13090;53.422;7.670;2022-07-10T14:06:16;24.30;55.30
25108;DHT22;13090;53.422;7.670;2022-07-10T14:11:19;24.20;55.10
25108;DHT22;13090;53.422;7.670;2022-07-10T14:16:21;24.10;55.20
25108;DHT22;13090;53.422;7.670;2022-07-10T14:21:25;23.90;55.40
25108;DHT22;13090;53.422;7.670;2022-07-10T14:26:28;23.80;55.70
25108;DHT22;13090;53.422;7.670;2022-07-10T14:31:30;23.70;56.10
25108;DHT22;13090;53.422;7.670;2022-07-10T14:36:34;23.60;56.00
25108;DHT22;13090;53.422;7.670;2022-07-10T14:41:37;23.50;56.10
25108;DHT22;13090;53.422;7.670;2022-07-10T14:46:39;23.30;56.30
25108;DHT22;13090;53.422;7.670;2022-07-10T14:51:44;23.30;56.80
25108;DHT22;13090;53.422;7.670;2022-07-10T14:56:46;23.30;57.40
25108;DHT22;13090;53.422;7.670;2022-07-10T15:01:48;23.30;57.50
25108;DHT22;13090;53.422;7.670;2022-07-10T15:06:52;23.30;57.80
25108;DHT22;13090;53.422;7.670;2022-07-10T15:11:55;23.30;57.90
25108;DHT22;13090;53.422;7.670;2022-07-10T15:16:57;23.30;57.90
25108;DHT22;13090;53.422;7.670;2022-07-10T15:22:01;23.40;58.00
25108;DHT22;13090;53.422;7.670;2022-07-10T15:27:04;23.40;58.10
25108;DHT22;13090;53.422;7.670;2022-07-10T15:32:07;23.40;58.00
25108;DHT22;13090;53.422;7.670;2022-07-10T15:37:12;23.40;57.90
25108;DHT22;13090;53.422;7.670;2022-07-10T15:42:19;23.40;58.00
25108;DHT22;13090;53.422;7.670;2022-07-10T15:47:25;23.40;58.20
25108;DHT22;13090;53.422;7.670;2022-07-10T15:52:29;23.40;58.00
25108;DHT22;13090;53.422;7.670;2022-07-10T15:57:33;23.40;57.80
25108;DHT22;13090;53.422;7.670;2022-07-10T16:02:35;23.40;57.80
25108;DHT22;13090;53.422;7.670;2022-07-10T16:07:39;23.30;57.60
25108;DHT22;13090;53.422;7.670;2022-07-10T16:12:41;23.30;57.60
25108;DHT22;13090;53.422;7.670;2022-07-10T16:17:45;23.10;57.70
25108;DHT22;13090;53.422;7.670;2022-07-10T16:23:07;23.10;57.80
25108;DHT22;13090;53.422;7.670;2022-07-10T16:28:18;22.90;58.30
25108;DHT22;13090;53.422;7.670;2022-07-10T16:33:24;22.80;58.50
25108;DHT22;13090;53.422;7.670;2022-07-10T16:38:29;22.50;59.10
25108;DHT22;13090;53.422;7.670;2022-07-10T16:43:35;22.10;59.60
25108;DHT22;13090;53.422;7.670;2022-07-10T16:48:41;21.70;60.20
25108;DHT22;13090;53.422;7.670;2022-07-10T16:53:45;21.50;61.50
25108;DHT22;13090;53.422;7.670;2022-07-10T16:59:08;21.20;62.10
25108;DHT22;13090;53.422;7.670;2022-07-10T17:04:13;21.00;62.40
25108;DHT22;13090;53.422;7.670;2022-07-10T17:09:26;20.80;63.40
25108;DHT22;13090;53.422;7.670;2022-07-10T17:14:46;20.70;64.00
25108;DHT22;13090;53.422;7.670;2022-07-10T17:20:15;20.50;64.50
25108;DHT22;13090;53.422;7.670;2022-07-10T17:25:21;20.50;65.00
25108;DHT22;13090;53.422;7.670;2022-07-10T17:30:23;20.50;65.60
25108;DHT22;13090;53.422;7.670;2022-07-10T17:35:41;20.50;65.40
25108;DHT22;13090;53.422;7.670;2022-07-10T17:40:58;20.60;66.50
25108;DHT22;13090;53.422;7.670;2022-07-10T17:46:00;20.70;65.60
25108;DHT22;13090;53.422;7.670;2022-07-10T17:51:03;20.70;65.60
25108;DHT22;13090;53.422;7.670;2022-07-10T17:56:08;20.70;65.60
25108;DHT22;13090;53.422;7.670;2022-07-10T18:01:10;20.70;65.60
25108;DHT22;13090;53.422;7.670;2022-07-10T18:06:13;20.70;65.60
25108;DHT22;13090;53.422;7.670;2022-07-10T18:11:19;20.60;65.80
25108;DHT22;13090;53.422;7.670;2022-07-10T18:16:21;20.60;66.30
25108;DHT22;13090;53.422;7.670;2022-07-10T18:21:25;20.60;66.30
25108;DHT22;13090;53.422;7.670;2022-07-10T18:26:30;20.50;66.60
25108;DHT22;13090;53.422;7.670;2022-07-10T18:31:34;20.50;66.60
25108;DHT22;13090;53.422;7.670;2022-07-10T18:36:38;20.40;66.50
25108;DHT22;13090;53.422;7.670;2022-07-10T18:41:43;20.40;66.70
25108;DHT22;13090;53.422;7.670;2022-07-10T18:46:46;20.40;66.80
25108;DHT22;13090;53.422;7.670;2022-07-10T18:51:49;20.30;66.70
25108;DHT22;13090;53.422;7.670;2022-07-10T18:56:53;20.30;67.00
25108;DHT22;13090;53.422;7.670;2022-07-10T19:01:56;20.20;67.30
25108;DHT22;13090;53.422;7.670;2022-07-10T19:07:14;20.10;67.30
25108;DHT22;13090;53.422;7.670;2022-07-10T19:12:45;20.10;68.80
25108;DHT22;13090;53.422;7.670;2022-07-10T19:18:09;20.10;69.10
25108;DHT22;13090;53.422;7.670;2022-07-10T19:23:37;20.00;68.80
25108;DHT22;13090;53.422;7.670;2022-07-10T19:34:53;20.00;69.00
25108;DHT22;13090;53.422;7.670;2022-07-10T19:39:55;19.90;68.10
25108;DHT22;13090;53.422;7.670;2022-07-10T19:45:02;19.80;68.00
25108;DHT22;13090;53.422;7.670;2022-07-10T19:50:07;19.80;68.50
25108;DHT22;13090;53.422;7.670;2022-07-10T19:55:10;19.80;68.50
25108;DHT22;13090;53.422;7.670;2022-07-10T20:00:12;19.70;68.30
25108;DHT22;13090;53.422;7.670;2022-07-10T20:05:16;19.70;68.40
25108;DHT22;13090;53.422;7.670;2022-07-10T20:10:19;19.60;68.70
25108;DHT22;13090;53.422;7.670;2022-07-10T20:15:22;19.60;68.80
25108;DHT22;13090;53.422;7.670;2022-07-10T20:20:46;19.50;69.00
25108;DHT22;13090;53.422;7.670;2022-07-10T20:25:48;19.60;69.20
25108;DHT22;13090;53.422;7.670;2022-07-10T20:30:52;19.50;69.20
25108;DHT22;13090;53.422;7.670;2022-07-10T20:35:56;19.50;69.30
25108;DHT22;13090;53.422;7.670;2022-07-10T20:40:59;19.50;69.70
25108;DHT22;13090;53.422;7.670;2022-07-10T20:46:02;19.40;69.60
25108;DHT22;13090;53.422;7.670;2022-07-10T20:51:06;19.40;69.80
25108;DHT22;13090;53.422;7.670;2022-07-10T20:56:09;19.40;70.00
25108;DHT22;13090;53.422;7.670;2022-07-10T21:01:11;19.40;70.20
25108;DHT22;13090;53.422;7.670;2022-07-10T21:06:16;19.40;70.20
25108;DHT22;13090;53.422;7.670;2022-07-10T21:11:18;19.40;70.50
25108;DHT22;13090;53.422;7.670;2022-07-10T21:16:20;19.30;70.40
25108;DHT22;13090;53.422;7.670;2022-07-10T21:21:24;19.30;70.60
25108;DHT22;13090;53.422;7.670;2022-07-10T21:26:27;19.30;70.90
25108;DHT22;13090;53.422;7.670;2022-07-10T21:31:29;19.30;70.90
25108;DHT22;13090;53.422;7.670;2022-07-10T21:36:33;19.20;70.90
25108;DHT22;13090;53.422;7.670;2022-07-10T21:41:36;19.20;71.20
25108;DHT22;13090;53.422;7.670;2022-07-10T21:46:38;19.20;71.20
25108;DHT22;13090;53.422;7.670;2022-07-10T21:51:42;19.20;71.40
25108;DHT22;13090;53.422;7.670;2022-07-10T21:56:45;19.20;71.80
25108;DHT22;13090;53.422;7.670;2022-07-10T22:01:47;19.10;71.50
25108;DHT22;13090;53.422;7.670;2022-07-10T22:06:51;19.10;71.80
25108;DHT22;13090;53.422;7.670;2022-07-10T22:11:54;19.10;72.00
25108;DHT22;13090;53.422;7.670;2022-07-10T22:16:56;19.00;72.00
25108;DHT22;13090;53.422;7.670;2022-07-10T22:22:00;19.00;72.20
25108;DHT22;13090;53.422;7.670;2022-07-10T22:27:03;19.00;72.50
25108;DHT22;13090;53.422;7.670;2022-07-10T22:32:07;19.00;72.30
25108;DHT22;13090;53.422;7.670;2022-07-10T22:37:11;19.00;72.30
25108;DHT22;13090;53.422;7.670;2022-07-10T22:42:13;19.00;72.40
25108;DHT22;13090;53.422;7.670;2022-07-10T22:47:16;19.00;72.30
25108;DHT22;13090;53.422;7.670;2022-07-10T22:52:19;19.00;72.40
25108;DHT22;13090;53.422;7.670;2022-07-10T22:57:22;18.90;72.60
25108;DHT22;13090;53.422;7.670;2022-07-10T23:02:24;18.90;72.60
25108;DHT22;13090;53.422;7.670;2022-07-10T23:07:28;18.90;72.80
25108;DHT22;13090;53.422;7.670;2022-07-10T23:12:33;18.80;73.10
25108;DHT22;13090;53.422;7.670;2022-07-10T23:17:35;18.80;73.30
25108;DHT22;13090;53.422;7.670;2022-07-10T23:22:39;18.70;73.20
25108;DHT22;13090;53.422;7.670;2022-07-10T23:27:41;18.70;73.40
25108;DHT22;13090;53.422;7.670;2022-07-10T23:32:44;18.70;73.40
25108;DHT22;13090;53.422;7.670;2022-07-10T23:37:47;18.70;73.50
25108;DHT22;13090;53.422;7.670;2022-07-10T23:42:50;18.60;73.70
25108;DHT22;13090;53.422;7.670;2022-07-10T23:47:52;18.60;73.60
25108;DHT22;13090;53.422;7.670;2022-07-10T23:52:56;18.60;73.80
25108;DHT22;13090;53.422;7.670;2022-07-10T23:58:04;18.60;74.10
